createdAt,value
2023-02-16T00:01:33.083Z,28.27
2023-02-16T00:04:04.978Z,26.85
2023-02-16T00:06:35.819Z,30.67
2023-02-16T00:09:05.153Z,24.13
2023-02-16T00:11:56.541Z,26.23
2023-02-16T00:14:27.533Z,53.35
2023-02-16T00:16:57.847Z,39.08
2023-02-16T00:19:30.250Z,42.67
2023-02-16T00:22:01.881Z,58.45
2023-02-16T00:24:35.021Z,57.97
2023-02-16T00:27:04.330Z,50.00
2023-02-16T00:29:56.649Z,49.97
2023-02-16T00:32:34.484Z,54.63
2023-02-16T00:35:12.435Z,60.00
2023-02-16T00:37:41.453Z,87.03
2023-02-16T00:40:14.526Z,120.47
2023-02-16T00:42:46.737Z,153.45
2023-02-16T00:45:22.395Z,164.68
2023-02-16T00:47:54.081Z,188.98
2023-02-16T00:50:27.723Z,143.70
2023-02-16T00:52:58.743Z,132.77
2023-02-16T00:55:30.867Z,129.35
2023-02-16T00:58:06.726Z,118.53
2023-02-16T01:00:39.617Z,113.85
2023-02-16T01:03:13.025Z,97.03
2023-02-16T01:05:41.932Z,75.70
2023-02-16T01:08:30.879Z,73.70
2023-02-16T01:11:10.440Z,94.85
2023-02-16T01:13:46.022Z,76.43
2023-02-16T01:16:19.499Z,81.88
2023-02-16T01:18:49.398Z,93.40
2023-02-16T01:21:18.993Z,95.32
2023-02-16T01:23:47.811Z,111.25
2023-02-16T01:26:18.885Z,155.20
2023-02-16T01:28:49.402Z,139.97
2023-02-16T01:31:19.909Z,156.98
2023-02-16T01:33:48.899Z,169.80
2023-02-16T01:36:24.989Z,156.43
2023-02-16T01:38:54.426Z,168.27
2023-02-16T01:41:31.719Z,167.10
2023-02-16T01:44:05.619Z,157.38
2023-02-16T01:46:45.691Z,88.63
2023-02-16T01:49:16.109Z,67.70
2023-02-16T01:51:54.131Z,51.85
2023-02-16T01:54:45.846Z,50.40
2023-02-16T01:57:28.838Z,53.05
2023-02-16T02:00:09.254Z,53.95
2023-02-16T02:02:52.578Z,53.60
2023-02-16T02:05:36.015Z,85.50
2023-02-16T02:08:19.403Z,54.75
2023-02-16T02:10:59.312Z,54.47
2023-02-16T02:13:34.313Z,46.53
2023-02-16T02:16:07.082Z,50.00
2023-02-16T02:18:38.104Z,51.65
2023-02-16T02:22:10.613Z,62.63
2023-02-16T02:25:15.624Z,65.88
2023-02-16T02:27:56.716Z,48.83
2023-02-16T02:30:40.959Z,51.13
2023-02-16T02:33:22.752Z,51.60
2023-02-16T02:35:59.552Z,55.50
2023-02-16T02:38:39.678Z,63.17
2023-02-16T02:41:17.368Z,61.45
2023-02-16T02:43:52.923Z,64.63
2023-02-16T02:46:26.890Z,73.07
2023-02-16T02:48:56.430Z,131.88
2023-02-16T02:51:31.945Z,79.57
2023-02-16T02:54:25.572Z,67.68
2023-02-16T02:57:22.197Z,64.78
2023-02-16T03:00:18.913Z,79.63
2023-02-16T03:02:55.328Z,71.73
2023-02-16T03:05:28.028Z,71.65
2023-02-16T03:08:06.657Z,66.57
2023-02-16T03:10:56.834Z,64.85
2023-02-16T03:13:30.224Z,67.63
2023-02-16T03:16:04.668Z,72.47
2023-02-16T03:19:05.502Z,72.18
2023-02-16T03:21:53.334Z,71.35
2023-02-16T03:24:43.361Z,65.60
2023-02-16T03:27:36.007Z,67.53
2023-02-16T03:30:11.731Z,63.97
2023-02-16T03:32:42.503Z,62.83
2023-02-16T03:35:12.913Z,70.60
2023-02-16T03:37:59.336Z,66.27
2023-02-16T03:40:51.786Z,64.15
2023-02-16T03:43:26.161Z,67.10
2023-02-16T03:45:56.811Z,66.18
2023-02-16T03:48:27.436Z,69.35
2023-02-16T03:50:56.483Z,61.20
2023-02-16T03:53:25.344Z,62.35
2023-02-16T03:55:54.565Z,57.05
2023-02-16T03:58:26.794Z,56.20
2023-02-16T04:00:55.829Z,63.20
2023-02-16T04:03:24.794Z,57.45
2023-02-16T04:05:56.771Z,52.33
2023-02-16T04:08:26.363Z,55.25
2023-02-16T04:10:58.034Z,51.17
2023-02-16T04:13:26.391Z,44.97
2023-02-16T04:15:56.467Z,41.85
2023-02-16T04:18:25.607Z,45.45
2023-02-16T04:20:56.890Z,42.53
2023-02-16T04:23:25.758Z,53.27
2023-02-16T04:25:54.705Z,58.67
2023-02-16T04:28:23.524Z,63.63
2023-02-16T04:30:53.345Z,61.17
2023-02-16T04:33:22.300Z,59.90
2023-02-16T04:35:51.168Z,70.63
2023-02-16T04:38:21.475Z,58.13
2023-02-16T04:40:50.292Z,73.28
2023-02-16T04:43:19.065Z,57.93
2023-02-16T04:45:47.961Z,73.72
2023-02-16T04:48:16.967Z,65.63
2023-02-16T04:50:45.772Z,67.40
2023-02-16T04:53:14.696Z,83.50
2023-02-16T04:55:48.743Z,77.95
2023-02-16T04:58:18.232Z,85.40
2023-02-16T05:00:48.766Z,80.65
2023-02-16T05:03:17.563Z,79.10
2023-02-16T05:05:46.761Z,73.63
2023-02-16T05:08:15.546Z,79.20
2023-02-16T05:10:44.848Z,82.07
2023-02-16T05:13:50.188Z,90.27
2023-02-16T05:16:21.376Z,75.17
2023-02-16T05:18:50.836Z,90.70
2023-02-16T05:21:35.951Z,76.60
2023-02-16T05:24:06.928Z,81.50
2023-02-16T05:26:36.888Z,88.95
2023-02-16T05:29:07.783Z,69.65
2023-02-16T05:31:44.694Z,70.53
2023-02-16T05:34:14.031Z,92.80
2023-02-16T05:36:46.752Z,84.30
2023-02-16T05:39:15.730Z,94.03
2023-02-16T05:41:44.587Z,63.72
2023-02-16T05:44:17.075Z,68.22
2023-02-16T05:46:52.419Z,59.13
2023-02-16T05:49:25.032Z,61.53
2023-02-16T05:51:54.145Z,63.73
2023-02-16T05:54:25.264Z,71.77
2023-02-16T05:56:55.607Z,76.03
2023-02-16T05:59:44.673Z,102.22
2023-02-16T06:02:13.754Z,84.23
2023-02-16T06:04:44.271Z,80.00
2023-02-16T06:07:15.001Z,112.23
2023-02-16T06:09:44.324Z,104.80
2023-02-16T06:12:13.113Z,122.30
2023-02-16T06:14:43.346Z,114.60
2023-02-16T06:17:12.357Z,127.53
2023-02-16T06:19:41.165Z,146.80
2023-02-16T06:22:09.993Z,215.33
2023-02-16T06:24:39.934Z,226.60
2023-02-16T06:27:08.906Z,237.97
2023-02-16T06:29:37.781Z,183.80
2023-02-16T06:32:08.296Z,157.87
2023-02-16T06:34:37.237Z,118.77
2023-02-16T06:37:06.022Z,100.60
2023-02-16T06:39:34.957Z,129.17
2023-02-16T06:42:04.069Z,112.00
2023-02-16T06:44:32.913Z,97.87
2023-02-16T06:47:01.849Z,88.43
2023-02-16T06:49:32.273Z,94.37
2023-02-16T06:52:01.547Z,94.47
2023-02-16T06:54:30.495Z,90.57
2023-02-16T06:56:59.341Z,67.30
2023-02-16T06:59:28.209Z,70.93
2023-02-16T07:01:57.020Z,55.63
2023-02-16T07:04:25.788Z,52.13
2023-02-16T07:06:56.152Z,45.27
2023-02-16T07:09:25.189Z,46.47
2023-02-16T07:11:54.603Z,54.83
2023-02-16T07:14:23.835Z,44.93
2023-02-16T07:16:52.858Z,43.33
2023-02-16T07:19:29.126Z,37.97
2023-02-16T07:21:59.944Z,39.50
2023-02-16T07:24:33.443Z,58.00
2023-02-16T07:27:02.437Z,46.43
2023-02-16T07:29:31.395Z,41.03
2023-02-16T07:32:00.340Z,47.97
2023-02-16T07:34:29.477Z,48.93
2023-02-16T07:36:59.984Z,48.27
2023-02-16T07:39:30.190Z,44.47
2023-02-16T07:42:11.105Z,44.10
2023-02-16T07:44:39.981Z,54.10
2023-02-16T07:47:16.692Z,46.00
2023-02-16T07:49:46.296Z,38.60
2023-02-16T07:52:16.665Z,51.63
2023-02-16T07:54:50.522Z,41.17
2023-02-16T07:57:20.610Z,32.67
2023-02-16T07:59:51.750Z,35.10
2023-02-16T08:02:21.481Z,73.60
2023-02-16T08:04:52.989Z,48.30
2023-02-16T08:07:34.079Z,43.27
2023-02-16T08:10:03.812Z,32.83
2023-02-16T08:12:32.667Z,33.30
2023-02-16T08:15:05.206Z,38.90
2023-02-16T08:17:35.411Z,35.03
2023-02-16T08:20:13.515Z,46.07
2023-02-16T08:22:45.066Z,72.17
2023-02-16T08:25:16.299Z,44.30
2023-02-16T08:27:45.251Z,33.83
2023-02-16T08:30:18.994Z,29.93
2023-02-16T08:32:51.009Z,47.63
2023-02-16T08:35:29.569Z,31.67
2023-02-16T08:38:02.554Z,35.40
2023-02-16T08:40:50.503Z,34.57
2023-02-16T08:43:20.108Z,40.17
2023-02-16T08:45:49.817Z,42.10
2023-02-16T08:48:18.738Z,50.10
2023-02-16T08:50:53.909Z,36.27
2023-02-16T08:53:25.470Z,38.60
2023-02-16T08:55:56.664Z,32.80
2023-02-16T08:58:26.637Z,45.63
2023-02-16T09:00:56.637Z,39.77
2023-02-16T09:03:25.968Z,32.20
2023-02-16T09:05:55.110Z,150.07
2023-02-16T09:08:25.359Z,30.37
2023-02-16T09:10:54.953Z,33.83
2023-02-16T09:13:23.825Z,42.83
2023-02-16T09:15:54.382Z,54.43
2023-02-16T09:18:23.272Z,28.27
2023-02-16T09:20:52.118Z,28.67
2023-02-16T09:23:37.432Z,25.63
2023-02-16T09:26:08.668Z,33.37
2023-02-16T09:28:39.521Z,31.77
2023-02-16T09:31:14.033Z,59.20
2023-02-16T09:34:04.165Z,28.23
2023-02-16T09:36:33.912Z,50.83
2023-02-16T09:39:02.821Z,40.00
2023-02-16T09:41:53.731Z,35.53
2023-02-16T09:44:30.676Z,25.43
2023-02-16T09:47:03.799Z,30.83
2023-02-16T09:49:37.344Z,28.00
2023-02-16T09:52:14.057Z,30.97
2023-02-16T09:54:49.637Z,42.67
2023-02-16T09:57:27.978Z,47.87
2023-02-16T10:00:08.719Z,43.07
2023-02-16T10:02:47.207Z,31.83
2023-02-16T10:05:25.804Z,33.83
2023-02-16T10:08:14.628Z,34.03
2023-02-16T10:10:51.292Z,27.57
2023-02-16T10:13:33.424Z,26.93
2023-02-16T10:16:03.797Z,26.40
2023-02-16T10:18:36.925Z,24.40
2023-02-16T10:21:15.509Z,26.53
2023-02-16T10:23:49.921Z,34.00
2023-02-16T10:26:24.766Z,27.07
2023-02-16T10:28:57.204Z,27.90
2023-02-16T10:31:31.753Z,22.23
2023-02-16T10:34:22.629Z,22.87
2023-02-16T10:37:24.118Z,33.67
2023-02-16T10:40:00.661Z,33.37
2023-02-16T10:42:39.796Z,26.23
2023-02-16T10:45:23.807Z,26.67
2023-02-16T10:47:53.895Z,23.53
2023-02-16T10:50:27.584Z,29.90
2023-02-16T10:53:00.163Z,35.53
2023-02-16T10:55:29.280Z,22.57
2023-02-16T10:58:02.260Z,25.87
2023-02-16T11:00:48.748Z,24.13
2023-02-16T11:03:19.446Z,26.67
2023-02-16T11:05:49.230Z,23.00
2023-02-16T11:08:19.560Z,19.73
2023-02-16T11:10:51.899Z,17.33
2023-02-16T11:13:31.672Z,21.93
2023-02-16T11:16:07.101Z,24.73
2023-02-16T11:18:38.465Z,38.30
2023-02-16T11:21:08.200Z,34.40
2023-02-16T11:23:38.262Z,21.17
2023-02-16T11:26:10.300Z,21.60
2023-02-16T11:28:40.606Z,31.90
2023-02-16T11:31:18.878Z,37.37
2023-02-16T11:33:59.217Z,29.43
2023-02-16T11:36:35.068Z,38.40
2023-02-16T11:39:10.897Z,61.73
2023-02-16T11:41:44.441Z,27.77
2023-02-16T11:44:27.176Z,31.13
2023-02-16T11:46:58.949Z,23.93
2023-02-16T11:49:34.153Z,21.13
2023-02-16T11:52:18.888Z,49.37
2023-02-16T11:54:51.321Z,26.00
2023-02-16T11:57:27.182Z,38.43
2023-02-16T11:59:57.652Z,29.23
2023-02-16T12:02:48.521Z,37.90
2023-02-16T12:05:28.418Z,22.10
2023-02-16T12:08:32.080Z,25.10
2023-02-16T12:11:18.191Z,38.43
2023-02-16T12:13:54.700Z,31.73
2023-02-16T12:16:31.942Z,31.50
2023-02-16T12:19:15.464Z,31.17
2023-02-16T12:21:48.893Z,30.10
2023-02-16T12:24:36.521Z,30.73
2023-02-16T12:27:08.808Z,52.93
2023-02-16T12:29:47.912Z,82.80
2023-02-16T12:32:30.359Z,43.77
2023-02-16T12:35:25.000Z,27.83
2023-02-16T12:38:03.758Z,37.03
2023-02-16T12:40:52.958Z,42.00
2023-02-16T12:43:35.502Z,35.33
2023-02-16T12:46:12.655Z,26.17
2023-02-16T12:48:46.761Z,27.37
2023-02-16T12:51:24.008Z,28.97
2023-02-16T12:53:59.508Z,31.10
2023-02-16T12:56:32.778Z,36.57
2023-02-16T12:59:18.929Z,38.70
2023-02-16T13:01:49.584Z,19.80
2023-02-16T13:04:25.484Z,32.40
2023-02-16T13:07:03.610Z,25.73
2023-02-16T13:09:43.183Z,42.30
2023-02-16T13:12:22.392Z,33.40
2023-02-16T13:15:03.475Z,23.83
2023-02-16T13:17:38.812Z,30.83
2023-02-16T13:20:17.289Z,28.87
2023-02-16T13:23:13.549Z,48.70
2023-02-16T13:26:15.364Z,21.33
2023-02-16T13:28:58.674Z,26.23
2023-02-16T13:31:44.016Z,53.37
2023-02-16T13:34:40.908Z,32.00
2023-02-16T13:37:22.508Z,53.07
2023-02-16T13:40:27.205Z,35.03
2023-02-16T13:43:22.141Z,31.57
2023-02-16T13:45:54.380Z,27.47
2023-02-16T13:48:28.108Z,26.50
2023-02-16T13:51:00.132Z,48.30
2023-02-16T13:53:38.087Z,123.07
2023-02-16T13:56:33.162Z,48.50
2023-02-16T13:59:38.578Z,42.10
2023-02-16T14:02:14.302Z,29.20
2023-02-16T14:05:02.133Z,42.93
2023-02-16T14:07:38.489Z,34.57
2023-02-16T14:10:14.203Z,31.77
2023-02-16T14:12:43.240Z,29.93
2023-02-16T14:15:22.990Z,39.53
2023-02-16T14:17:51.851Z,52.20
2023-02-16T14:20:31.101Z,30.20
2023-02-16T14:23:01.167Z,31.97
2023-02-16T14:25:36.978Z,24.30
2023-02-16T14:28:07.756Z,52.63
2023-02-16T14:30:46.445Z,34.80
2023-02-16T14:33:22.624Z,36.23
2023-02-16T14:36:09.293Z,26.70
2023-02-16T14:38:40.171Z,28.97
2023-02-16T14:41:16.135Z,33.87
2023-02-16T14:43:46.999Z,31.33
2023-02-16T14:46:48.662Z,31.07
2023-02-16T14:49:47.604Z,27.17
2023-02-16T14:52:38.447Z,23.30
2023-02-16T14:56:03.255Z,43.67
2023-02-16T14:58:37.359Z,36.90
2023-02-16T15:01:12.661Z,47.03
2023-02-16T15:03:46.647Z,39.83
2023-02-16T15:06:25.405Z,66.30
2023-02-16T15:09:00.460Z,45.53
2023-02-16T15:11:56.208Z,55.67
2023-02-16T15:14:27.219Z,55.70
2023-02-16T15:16:58.260Z,54.40
2023-02-16T15:19:32.658Z,96.23
2023-02-16T15:22:23.016Z,73.30
2023-02-16T15:25:00.106Z,126.07
2023-02-16T15:27:36.768Z,106.13
2023-02-16T15:30:24.187Z,101.63
2023-02-16T15:32:56.251Z,96.07
2023-02-16T15:35:34.602Z,47.93
2023-02-16T15:38:21.486Z,51.93
2023-02-16T15:40:55.120Z,61.63
2023-02-16T15:43:34.213Z,41.23
2023-02-16T15:46:09.068Z,57.63
2023-02-16T15:48:39.060Z,45.97
2023-02-16T15:51:15.650Z,35.23
2023-02-16T15:53:51.591Z,40.97
2023-02-16T15:56:36.134Z,49.20
2023-02-16T15:59:27.757Z,90.43
2023-02-16T16:02:03.155Z,103.27
2023-02-16T16:04:38.934Z,88.10
2023-02-16T16:07:14.872Z,75.57
2023-02-16T16:09:46.437Z,42.03
2023-02-16T16:12:19.308Z,48.63
2023-02-16T16:14:59.469Z,108.27
2023-02-16T16:17:31.793Z,101.27
2023-02-16T16:20:31.822Z,216.57
2023-02-16T16:23:05.093Z,202.37
2023-02-16T16:25:43.474Z,147.60
2023-02-16T16:28:15.357Z,226.20
2023-02-16T16:30:45.513Z,200.93
2023-02-16T16:33:16.707Z,168.53
2023-02-16T16:35:47.835Z,149.50
2023-02-16T16:38:27.872Z,132.33
2023-02-16T16:40:59.021Z,136.57
2023-02-16T16:43:32.794Z,165.00
2023-02-16T16:46:14.216Z,167.03
2023-02-16T16:48:48.177Z,210.87
2023-02-16T16:51:22.732Z,244.47
2023-02-16T16:54:00.762Z,166.60
2023-02-16T16:56:31.262Z,163.40
2023-02-16T16:59:01.648Z,166.87
2023-02-16T17:01:31.702Z,128.27
2023-02-16T17:04:01.127Z,124.53
2023-02-16T17:06:31.412Z,133.87
2023-02-16T17:09:02.811Z,122.60
2023-02-16T17:11:35.087Z,146.33
2023-02-16T17:14:10.774Z,124.73
2023-02-16T17:16:43.476Z,89.30
2023-02-16T17:19:14.122Z,112.03
2023-02-16T17:21:43.416Z,107.03
2023-02-16T17:24:14.015Z,129.13
2023-02-16T17:26:44.340Z,118.07
2023-02-16T17:29:13.506Z,116.60
2023-02-16T17:31:44.396Z,161.00
2023-02-16T17:34:14.648Z,75.07
2023-02-16T17:36:43.917Z,69.53
2023-02-16T17:39:15.719Z,88.67
2023-02-16T17:41:45.384Z,94.03
2023-02-16T17:44:14.362Z,112.73
2023-02-16T17:46:43.718Z,73.73
2023-02-16T17:49:14.050Z,75.97
2023-02-16T17:51:44.134Z,73.97
2023-02-16T17:54:15.582Z,79.80
2023-02-16T17:57:05.999Z,119.73
2023-02-16T17:59:37.190Z,70.10
2023-02-16T18:02:06.602Z,72.90
2023-02-16T18:04:42.140Z,70.80
2023-02-16T18:07:14.810Z,97.83
2023-02-16T18:09:45.800Z,55.67
2023-02-16T18:12:17.858Z,58.53
2023-02-16T18:14:47.090Z,57.50
2023-02-16T18:17:16.409Z,55.23
2023-02-16T18:19:45.926Z,58.93
2023-02-16T18:22:15.333Z,49.60
2023-02-16T18:24:45.674Z,51.87
2023-02-16T18:27:15.110Z,45.13
2023-02-16T18:29:45.121Z,63.17
2023-02-16T18:32:17.224Z,119.27
2023-02-16T18:34:46.888Z,80.43
2023-02-16T18:37:16.648Z,57.77
2023-02-16T18:39:48.847Z,56.90
2023-02-16T18:42:28.532Z,82.67
2023-02-16T18:45:16.302Z,57.93
2023-02-16T18:47:45.851Z,54.60
2023-02-16T18:50:14.925Z,65.23
2023-02-16T18:52:45.109Z,54.45
2023-02-16T18:55:20.611Z,75.90
2023-02-16T18:57:51.658Z,73.83
2023-02-16T19:00:23.080Z,67.13
2023-02-16T19:02:54.823Z,69.07
2023-02-16T19:05:25.212Z,74.63
2023-02-16T19:07:58.187Z,76.80
2023-02-16T19:10:28.757Z,63.17
2023-02-16T19:12:57.726Z,61.47
2023-02-16T19:15:28.391Z,76.83
2023-02-16T19:17:57.375Z,60.35
2023-02-16T19:20:26.244Z,55.07
2023-02-16T19:22:55.575Z,61.30
2023-02-16T19:25:24.774Z,57.47
2023-02-16T19:27:56.433Z,55.63
2023-02-16T19:30:25.608Z,54.37
2023-02-16T19:32:59.041Z,49.33
2023-02-16T19:35:28.650Z,47.13
2023-02-16T19:37:57.605Z,46.25
2023-02-16T19:40:28.211Z,54.20
2023-02-16T19:42:58.953Z,58.25
2023-02-16T19:45:28.337Z,61.55
2023-02-16T19:47:58.705Z,55.90
2023-02-16T19:50:27.642Z,60.58
2023-02-16T19:52:56.484Z,83.07
2023-02-16T19:55:25.567Z,52.30
2023-02-16T19:57:54.878Z,58.83
2023-02-16T20:00:25.275Z,78.72
2023-02-16T20:02:54.464Z,59.63
2023-02-16T20:05:23.613Z,52.33
2023-02-16T20:07:52.469Z,53.13
2023-02-16T20:10:28.562Z,50.33
2023-02-16T20:12:57.587Z,42.63
2023-02-16T20:15:28.190Z,44.40
2023-02-16T20:17:56.994Z,54.10
2023-02-16T20:20:25.956Z,59.72
2023-02-16T20:22:55.038Z,51.58
2023-02-16T20:25:23.897Z,42.50
2023-02-16T20:28:00.461Z,40.17
2023-02-16T20:30:31.137Z,39.15
2023-02-16T20:33:00.228Z,44.38
2023-02-16T20:35:29.237Z,35.53
2023-02-16T20:37:58.110Z,38.72
2023-02-16T20:40:27.069Z,35.58
2023-02-16T20:42:55.889Z,49.17
2023-02-16T20:45:25.157Z,53.40
2023-02-16T20:47:55.392Z,61.78
2023-02-16T20:50:24.426Z,60.70
2023-02-16T20:52:53.296Z,47.42
2023-02-16T20:55:22.602Z,48.78
2023-02-16T20:57:52.419Z,44.30
2023-02-16T21:00:24.213Z,50.95
2023-02-16T21:02:55.151Z,46.25
2023-02-16T21:05:25.026Z,43.55
2023-02-16T21:07:53.904Z,46.33
2023-02-16T21:10:22.752Z,46.47
2023-02-16T21:12:51.654Z,48.10
2023-02-16T21:15:20.737Z,52.60
2023-02-16T21:17:49.502Z,47.85
2023-02-16T21:20:19.815Z,53.08
2023-02-16T21:22:48.951Z,61.78
2023-02-16T21:25:18.102Z,58.83
2023-02-16T21:27:47.114Z,65.50
2023-02-16T21:30:16.761Z,64.53
2023-02-16T21:32:45.635Z,68.38
2023-02-16T21:35:14.478Z,61.33
2023-02-16T21:37:44.710Z,60.63
2023-02-16T21:40:32.513Z,70.15
2023-02-16T21:43:01.473Z,68.30
2023-02-16T21:45:30.377Z,58.40
2023-02-16T21:48:16.657Z,49.65
2023-02-16T21:50:45.577Z,52.05
2023-02-16T21:53:15.822Z,47.05
2023-02-16T21:56:01.966Z,44.85
2023-02-16T21:58:49.813Z,48.08
2023-02-16T22:01:23.308Z,48.28
2023-02-16T22:03:56.323Z,52.28
2023-02-16T22:06:26.506Z,48.58
2023-02-16T22:08:57.049Z,54.88
2023-02-16T22:11:26.284Z,59.60
2023-02-16T22:13:56.468Z,57.97
2023-02-16T22:16:46.552Z,58.97
2023-02-16T22:19:17.548Z,56.72
2023-02-16T22:21:48.129Z,61.42
2023-02-16T22:24:20.111Z,60.10
2023-02-16T22:26:51.183Z,59.00
2023-02-16T22:29:20.430Z,67.20
2023-02-16T22:31:50.868Z,65.03
2023-02-16T22:34:21.356Z,58.88
2023-02-16T22:36:50.603Z,53.95
2023-02-16T22:39:21.237Z,52.58
2023-02-16T22:41:51.190Z,49.40
2023-02-16T22:44:20.100Z,54.85
2023-02-16T22:46:49.065Z,53.42
2023-02-16T22:49:17.904Z,50.88
2023-02-16T22:52:05.633Z,50.33
2023-02-16T22:54:36.041Z,45.40
2023-02-16T22:57:07.335Z,44.55
2023-02-16T22:59:36.347Z,49.92
2023-02-16T23:02:05.123Z,45.03
2023-02-16T23:04:34.037Z,47.47
2023-02-16T23:07:02.856Z,48.70
2023-02-16T23:09:31.660Z,48.00
2023-02-16T23:12:02.280Z,48.22
2023-02-16T23:14:31.067Z,46.65
2023-02-16T23:17:00.336Z,49.20
2023-02-16T23:19:29.308Z,52.42
2023-02-16T23:21:58.060Z,48.28
2023-02-16T23:24:27.102Z,47.10
2023-02-16T23:26:56.546Z,50.88
2023-02-16T23:29:27.856Z,53.33
2023-02-16T23:31:56.772Z,51.10
2023-02-16T23:34:25.576Z,54.10
2023-02-16T23:36:54.409Z,60.40
2023-02-16T23:39:23.291Z,61.97
2023-02-16T23:41:52.071Z,59.47
2023-02-16T23:44:21.006Z,62.08
2023-02-16T23:46:51.441Z,71.68
2023-02-16T23:49:20.332Z,75.00
2023-02-16T23:51:49.098Z,59.53
2023-02-16T23:54:17.868Z,65.03
2023-02-16T23:56:46.812Z,57.08
2023-02-16T23:59:15.892Z,56.67
